Time;durP1;ratioP1;P1;durP2;ratioP2;P2;SDS_P1;SDS_P2;PMS_P1;PMS_P2;Temp;Humidity;BMP_temperature;BMP_pressure;BME280_temperature;BME280_humidity;BME280_pressure;Samples;Min_cycle;Max_cycle;Signal;HPM_P1;HPM_P2
2021/11/06 00:01:34;;;;;;;14.85;9.70;;;5.80;99.90;;;;;;5034789;28;20032;-83
2021/11/06 00:04:01;;;;;;;11.15;7.57;;;5.80;99.90;;;;;;5016829;28;20029;-83
2021/11/06 00:06:26;;;;;;;11.43;8.25;;;5.70;99.90;;;;;;5034657;28;20392;-84
2021/11/06 00:08:52;;;;;;;10.40;7.25;;;6.00;99.90;;;;;;5016716;28;20121;-83
2021/11/06 00:11:18;;;;;;;11.32;8.05;;;5.90;99.90;;;;;;5016592;28;20072;-83
2021/11/06 00:13:44;;;;;;;10.00;7.25;;;6.00;99.90;;;;;;5016572;28;20075;-83
2021/11/06 00:16:10;;;;;;;10.85;7.75;;;6.00;99.90;;;;;;5017619;28;20485;-83
2021/11/06 00:18:35;;;;;;;10.18;7.28;;;6.00;99.90;;;;;;5016465;28;20112;-83
2021/11/06 00:21:01;;;;;;;9.65;6.90;;;5.90;99.90;;;;;;5012843;28;20057;-83
2021/11/06 00:23:27;;;;;;;9.35;7.15;;;6.00;99.90;;;;;;5014341;28;20033;-83
2021/11/06 00:25:53;;;;;;;17.20;7.80;;;6.10;99.90;;;;;;5013220;28;20030;-83
2021/11/06 00:28:18;;;;;;;11.52;7.38;;;5.90;99.90;;;;;;5013009;28;20504;-83
2021/11/06 00:30:44;;;;;;;9.40;6.88;;;5.90;99.90;;;;;;5013034;28;20025;-83
2021/11/06 00:33:10;;;;;;;11.05;8.05;;;5.70;99.90;;;;;;5013036;28;20091;-83
2021/11/06 00:35:36;;;;;;;8.57;6.20;;;5.80;99.90;;;;;;5012917;28;20072;-83
2021/11/06 00:38:02;;;;;;;8.15;6.47;;;6.00;99.90;;;;;;5014493;28;20441;-84
2021/11/06 00:40:28;;;;;;;8.95;7.10;;;5.90;99.90;;;;;;5012892;28;20585;-84
2021/11/06 00:42:54;;;;;;;8.18;6.28;;;5.90;99.90;;;;;;5014087;28;20054;-84
2021/11/06 00:45:20;;;;;;;8.40;6.25;;;5.90;99.90;;;;;;5013262;28;20029;-83
2021/11/06 00:47:45;;;;;;;9.57;7.18;;;6.00;99.90;;;;;;5013211;28;20026;-84
2021/11/06 00:50:15;;;;;;;12.18;7.25;;;6.00;99.90;;;;;;5012726;28;20022;-83
2021/11/06 00:52:45;;;;;;;10.48;7.28;;;5.90;99.90;;;;;;5012675;28;20045;-83
2021/11/06 00:55:12;;;;;;;9.50;6.97;;;5.80;99.90;;;;;;5012631;28;20026;-84
2021/11/06 00:57:38;;;;;;;10.18;6.60;;;5.80;99.90;;;;;;5013810;28;20052;-83
2021/11/06 01:00:07;;;;;;;8.10;6.03;;;5.80;99.90;;;;;;5012595;28;20482;-83
2021/11/06 01:02:33;;;;;;;9.52;7.05;;;5.90;99.90;;;;;;5012540;28;20061;-83
2021/11/06 01:04:59;;;;;;;9.07;6.20;;;5.80;99.90;;;;;;5012532;28;20053;-83
2021/11/06 01:07:25;;;;;;;10.88;6.07;;;5.50;99.90;;;;;;5012453;28;20437;-83
2021/11/06 01:09:51;;;;;;;9.90;7.32;;;5.50;99.90;;;;;;5012300;28;20572;-83
2021/11/06 01:12:16;;;;;;;9.75;6.82;;;5.50;99.90;;;;;;5012887;28;20050;-83
2021/11/06 01:14:42;;;;;;;8.05;6.07;;;5.50;99.90;;;;;;5012372;28;20049;-83
2021/11/06 01:17:08;;;;;;;8.65;6.50;;;5.40;99.90;;;;;;5012631;28;20022;-83
2021/11/06 01:19:34;;;;;;;8.55;6.22;;;5.20;99.90;;;;;;5013529;28;20029;-83
2021/11/06 01:21:59;;;;;;;7.63;5.55;;;5.30;99.90;;;;;;5012040;28;20100;-83
2021/11/06 01:24:25;;;;;;;8.15;5.90;;;5.20;99.90;;;;;;5012206;28;20521;-83
2021/11/06 01:26:52;;;;;;;8.45;6.53;;;5.40;99.90;;;;;;5014025;28;20101;-83
2021/11/06 01:29:19;;;;;;;9.55;5.95;;;5.40;99.90;;;;;;5012100;28;20039;-83
2021/11/06 01:31:44;;;;;;;8.38;6.10;;;5.30;99.90;;;;;;5012127;28;20045;-83
2021/11/06 01:34:12;;;;;;;8.00;6.20;;;5.20;99.90;;;;;;5012759;28;20018;-83
2021/11/06 01:36:38;;;;;;;11.95;6.20;;;5.20;99.90;;;;;;5012059;28;20041;-83
2021/11/06 01:39:03;;;;;;;9.13;6.38;;;5.10;99.90;;;;;;5013285;28;20478;-83
2021/11/06 01:41:29;;;;;;;9.10;6.32;;;4.70;99.90;;;;;;5012044;28;20029;-84
2021/11/06 01:43:55;;;;;;;7.65;5.57;;;4.70;99.90;;;;;;5012030;28;20051;-84
2021/11/06 01:46:21;;;;;;;8.07;5.93;;;4.90;99.90;;;;;;5011993;28;20115;-83
2021/11/06 01:48:47;;;;;;;8.98;6.03;;;5.00;99.90;;;;;;5013200;28;20054;-83
2021/11/06 01:51:13;;;;;;;10.50;5.97;;;5.20;99.90;;;;;;5011967;28;20029;-83
2021/11/06 01:53:38;;;;;;;68.47;23.48;;;5.30;99.90;;;;;;5012175;28;20029;-83
2021/11/06 01:56:04;;;;;;;11.10;6.85;;;5.10;99.90;;;;;;5011778;28;20022;-83
2021/11/06 01:58:31;;;;;;;8.43;5.43;;;5.20;99.90;;;;;;5011808;28;20080;-84
2021/11/06 02:00:58;;;;;;;7.63;5.45;;;5.20;99.90;;;;;;5011856;28;20088;-84
2021/11/06 02:03:24;;;;;;;9.07;6.22;;;5.30;99.90;;;;;;5013117;28;20069;-83
2021/11/06 02:05:50;;;;;;;9.80;7.03;;;5.30;99.90;;;;;;5013079;28;20026;-83
2021/11/06 02:08:17;;;;;;;8.73;5.82;;;5.30;99.90;;;;;;5011651;28;20061;-83
2021/11/06 02:10:45;;;;;;;9.10;5.70;;;5.20;99.90;;;;;;5011719;28;20418;-83
2021/11/06 02:13:11;;;;;;;8.05;6.05;;;5.10;99.90;;;;;;5011728;28;20025;-83
2021/11/06 02:15:37;;;;;;;9.13;6.13;;;5.00;99.90;;;;;;5011721;28;20050;-84
2021/11/06 02:18:04;;;;;;;10.10;6.43;;;4.80;99.90;;;;;;5012859;28;20061;-84
2021/11/06 02:20:30;;;;;;;8.25;6.35;;;4.80;99.90;;;;;;5016827;28;20092;-84
2021/11/06 02:22:56;;;;;;;9.23;6.05;;;4.70;99.90;;;;;;5015004;28;20029;-83
2021/11/06 02:25:22;;;;;;;7.43;5.50;;;4.70;99.90;;;;;;5014843;28;20026;-83
2021/11/06 02:27:49;;;;;;;7.20;5.47;;;4.70;99.90;;;;;;5032742;28;20021;-83
2021/11/06 02:30:16;;;;;;;8.13;5.05;;;4.70;99.90;;;;;;5014793;28;20112;-83
2021/11/06 02:32:44;;;;;;;7.68;5.43;;;4.80;99.90;;;;;;5014843;28;20021;-84
2021/11/06 02:35:10;;;;;;;8.05;5.70;;;5.00;99.90;;;;;;5014818;28;20112;-84
2021/11/06 02:37:36;;;;;;;7.22;5.65;;;5.10;99.90;;;;;;5014728;28;20114;-83
2021/11/06 02:40:04;;;;;;;7.10;4.93;;;5.10;99.90;;;;;;5014743;28;20469;-84
2021/11/06 02:42:29;;;;;;;6.80;4.75;;;5.10;99.90;;;;;;5014822;28;20032;-84
2021/11/06 02:44:56;;;;;;;7.70;5.07;;;5.00;99.90;;;;;;5017019;28;20465;-84
2021/11/06 02:47:22;;;;;;;8.15;6.20;;;4.90;99.90;;;;;;5036014;28;20470;-83
2021/11/06 02:49:48;;;;;;;7.85;5.47;;;4.90;99.90;;;;;;5035900;28;20032;-83
2021/11/06 02:52:13;;;;;;;7.55;5.68;;;4.80;99.90;;;;;;5018099;28;20076;-84
2021/11/06 02:54:39;;;;;;;6.20;5.55;;;4.80;99.90;;;;;;5035796;28;20412;-83
2021/11/06 02:57:08;;;;;;;10.75;5.57;;;4.60;99.90;;;;;;5018312;28;20025;-83
2021/11/06 02:59:33;;;;;;;6.95;5.28;;;4.70;99.90;;;;;;5035750;28;20544;-83
2021/11/06 03:01:59;;;;;;;6.65;5.10;;;4.80;99.90;;;;;;5017989;28;20116;-83
2021/11/06 03:04:25;;;;;;;7.72;5.30;;;4.90;99.90;;;;;;5018021;28;20068;-84
2021/11/06 03:06:50;;;;;;;6.40;5.30;;;5.00;99.90;;;;;;5035883;28;20474;-83
2021/11/06 03:09:17;;;;;;;10.07;5.28;;;4.60;99.90;;;;;;5035499;28;20142;-83
2021/11/06 03:11:42;;;;;;;7.80;5.45;;;4.10;99.90;;;;;;5017783;28;20116;-83
2021/11/06 03:14:10;;;;;;;7.95;5.30;;;4.30;99.90;;;;;;5017715;28;20071;-83
2021/11/06 03:16:39;;;;;;;6.78;4.88;;;4.40;99.90;;;;;;5017621;28;20022;-84
2021/11/06 03:19:05;;;;;;;6.57;5.00;;;4.40;99.90;;;;;;5017605;28;20040;-83
2021/11/06 03:21:30;;;;;;;9.18;5.50;;;4.50;99.90;;;;;;5017387;28;20046;-83
2021/11/06 03:23:56;;;;;;;6.88;5.60;;;4.50;99.90;;;;;;5035308;28;20032;-83
2021/11/06 03:26:22;;;;;;;9.23;5.70;;;4.40;99.90;;;;;;5017539;28;20026;-84
2021/11/06 03:28:48;;;;;;;6.05;5.18;;;4.50;99.90;;;;;;5017365;28;20033;-83
2021/11/06 03:31:14;;;;;;;10.05;5.18;;;4.40;99.90;;;;;;5017385;28;20453;-84
2021/11/06 03:33:39;;;;;;;6.60;4.80;;;4.60;99.90;;;;;;5017424;28;20056;-84
2021/11/06 03:36:05;;;;;;;6.57;5.00;;;4.60;99.90;;;;;;5017310;28;20064;-83
2021/11/06 03:38:31;;;;;;;5.75;4.70;;;4.40;99.90;;;;;;5017269;28;20026;-83
2021/11/06 03:40:57;;;;;;;6.13;4.65;;;4.30;99.90;;;;;;5035011;28;20025;-84
2021/11/06 03:43:23;;;;;;;8.20;5.20;;;4.60;99.90;;;;;;5017202;28;20029;-83
2021/11/06 03:45:49;;;;;;;6.90;4.70;;;4.60;99.90;;;;;;5017245;28;20029;-84
2021/11/06 03:48:15;;;;;;;7.45;5.32;;;4.60;99.90;;;;;;5034804;28;20029;-84
2021/11/06 03:50:40;;;;;;;6.95;5.18;;;4.70;99.90;;;;;;5017163;28;20057;-83
2021/11/06 03:53:06;;;;;;;7.05;5.35;;;4.40;99.90;;;;;;5016992;28;20052;-84
2021/11/06 03:55:33;;;;;;;7.60;6.20;;;4.00;99.90;;;;;;5016952;28;20029;-84
2021/11/06 03:57:59;;;;;;;6.97;5.13;;;4.00;99.90;;;;;;5016294;28;20033;-83
2021/11/06 04:00:25;;;;;;;8.70;5.28;;;4.00;99.90;;;;;;5016856;28;20026;-84
2021/11/06 04:02:51;;;;;;;5.80;4.88;;;4.30;99.90;;;;;;5017169;28;20029;-83
2021/11/06 04:05:17;;;;;;;8.05;4.85;;;4.30;99.90;;;;;;5034544;28;20025;-84
2021/11/06 04:07:44;;;;;;;6.00;4.50;;;4.20;99.90;;;;;;5017255;28;20029;-84
2021/11/06 04:10:11;;;;;;;6.57;4.82;;;4.70;99.90;;;;;;5016733;28;20083;-84
2021/11/06 04:12:38;;;;;;;5.18;4.32;;;4.50;99.90;;;;;;5034408;28;20040;-84
2021/11/06 04:15:06;;;;;;;5.80;4.38;;;4.40;99.90;;;;;;5016620;28;20025;-84
2021/11/06 04:17:33;;;;;;;6.57;5.03;;;4.50;99.90;;;;;;5000823;28;20046;-84
2021/11/06 04:19:59;;;;;;;4.65;4.15;;;4.40;99.90;;;;;;5016529;28;20028;-84
2021/11/06 04:22:25;;;;;;;6.47;4.68;;;4.40;99.90;;;;;;5016529;28;20088;-84
2021/11/06 04:24:51;;;;;;;7.32;5.20;;;4.30;99.90;;;;;;5016449;28;20030;-84
2021/11/06 04:27:17;;;;;;;8.38;4.97;;;4.20;99.90;;;;;;5016381;28;20032;-84
2021/11/06 04:29:42;;;;;;;6.40;4.75;;;4.30;99.90;;;;;;5016801;28;20124;-84
2021/11/06 04:32:08;;;;;;;8.70;4.68;;;4.40;99.90;;;;;;5016282;28;20021;-84
2021/11/06 04:34:34;;;;;;;7.05;4.35;;;4.30;99.90;;;;;;5016296;28;20018;-84
2021/11/06 04:37:00;;;;;;;7.05;4.70;;;4.60;99.90;;;;;;5016629;28;20017;-84
2021/11/06 04:39:26;;;;;;;7.65;4.97;;;4.60;99.90;;;;;;5016199;28;20025;-84
2021/11/06 04:41:51;;;;;;;7.95;5.45;;;4.50;99.90;;;;;;5016120;28;20032;-84
2021/11/06 04:44:17;;;;;;;6.22;5.03;;;4.20;99.90;;;;;;5016104;28;20026;-84
2021/11/06 04:46:43;;;;;;;6.80;4.80;;;4.20;99.90;;;;;;5016569;28;20409;-84
2021/11/06 04:49:08;;;;;;;7.15;4.75;;;3.90;99.90;;;;;;5033916;28;20430;-84
2021/11/06 04:51:34;;;;;;;5.43;4.20;;;3.90;99.90;;;;;;5016205;28;20477;-84
2021/11/06 04:54:00;;;;;;;7.30;4.50;;;4.30;99.90;;;;;;5015893;28;20052;-84
2021/11/06 04:56:26;;;;;;;4.13;3.42;;;4.20;99.90;;;;;;5015810;28;20034;-85
2021/11/06 04:58:52;;;;;;;5.88;4.13;;;4.30;99.90;;;;;;5015817;28;20025;-84
2021/11/06 05:01:18;;;;;;;7.15;3.72;;;4.10;99.90;;;;;;5016014;28;20031;-84
2021/11/06 05:03:44;;;;;;;6.07;4.32;;;4.30;99.90;;;;;;5015768;28;20026;-84
2021/11/06 05:06:10;;;;;;;5.53;3.78;;;4.50;99.90;;;;;;5015782;28;20029;-84
2021/11/06 05:08:36;;;;;;;5.43;3.53;;;4.60;99.90;;;;;;5014822;28;20031;-84
2021/11/06 05:11:02;;;;;;;6.90;4.80;;;4.60;99.90;;;;;;5015770;28;20466;-84
2021/11/06 05:13:27;;;;;;;4.05;3.45;;;4.80;99.90;;;;;;5015633;28;20500;-85
2021/11/06 05:15:53;;;;;;;5.05;4.15;;;4.90;99.90;;;;;;5015572;28;20025;-84
2021/11/06 05:18:20;;;;;;;6.13;4.07;;;4.90;99.90;;;;;;5015445;28;20539;-84
2021/11/06 05:20:46;;;;;;;8.93;4.07;;;4.60;99.90;;;;;;5033032;28;20041;-84
2021/11/06 05:23:13;;;;;;;7.47;5.15;;;4.50;99.90;;;;;;5015465;28;20030;-84
2021/11/06 05:25:40;;;;;;;5.50;4.00;;;4.10;99.90;;;;;;5033167;28;20056;-84
2021/11/06 05:28:06;;;;;;;7.68;4.60;;;4.40;99.90;;;;;;5015431;28;20036;-84
2021/11/06 05:30:32;;;;;;;6.32;4.13;;;4.40;99.90;;;;;;5015440;28;20026;-84
2021/11/06 05:32:58;;;;;;;6.57;4.25;;;4.40;99.90;;;;;;5033090;28;20024;-84
2021/11/06 05:35:24;;;;;;;7.78;4.00;;;4.40;99.90;;;;;;5015357;28;20477;-84
2021/11/06 05:37:50;;;;;;;4.97;3.80;;;4.40;99.90;;;;;;5015345;28;20021;-84
2021/11/06 05:40:16;;;;;;;5.45;4.32;;;4.40;99.90;;;;;;5015267;28;20424;-84
2021/11/06 05:42:41;;;;;;;4.78;3.65;;;4.30;99.90;;;;;;5015257;28;20022;-83
2021/11/06 05:45:09;;;;;;;4.38;3.72;;;4.20;99.90;;;;;;5015216;28;20080;-84
2021/11/06 05:47:36;;;;;;;4.22;3.30;;;4.50;99.90;;;;;;5015237;28;20021;-83
2021/11/06 05:50:03;;;;;;;4.47;3.72;;;4.30;99.90;;;;;;5015185;28;20033;-84
2021/11/06 05:52:29;;;;;;;5.47;3.75;;;4.30;99.90;;;;;;5015223;28;20021;-83
2021/11/06 05:54:55;;;;;;;7.30;3.88;;;4.30;99.90;;;;;;5015205;28;20500;-84
2021/11/06 05:57:21;;;;;;;4.57;3.67;;;4.40;99.90;;;;;;5015151;28;20021;-84
2021/11/06 05:59:47;;;;;;;3.85;3.15;;;4.40;99.90;;;;;;5015177;28;20540;-84
2021/11/06 06:02:13;;;;;;;5.13;3.50;;;4.20;99.90;;;;;;5015088;28;20110;-84
2021/11/06 06:04:39;;;;;;;5.47;3.75;;;4.20;99.90;;;;;;5015326;28;20033;-84
2021/11/06 06:07:04;;;;;;;4.53;3.42;;;4.40;99.90;;;;;;5032837;28;20061;-84
2021/11/06 06:09:30;;;;;;;4.03;3.40;;;4.40;99.90;;;;;;5032741;28;20029;-84
2021/11/06 06:11:56;;;;;;;4.32;3.20;;;4.50;99.90;;;;;;5015053;28;20470;-84
2021/11/06 06:14:22;;;;;;;4.15;3.22;;;4.70;99.90;;;;;;5015765;28;20053;-84
2021/11/06 06:16:48;;;;;;;5.00;3.50;;;4.60;99.90;;;;;;5014945;28;20489;-83
2021/11/06 06:19:13;;;;;;;5.32;4.35;;;4.50;99.90;;;;;;5015211;28;20030;-84
2021/11/06 06:21:39;;;;;;;5.80;3.92;;;4.40;99.90;;;;;;5018477;28;20041;-84
2021/11/06 06:24:05;;;;;;;6.47;4.53;;;4.20;99.90;;;;;;5018653;28;20032;-84
2021/11/06 06:26:31;;;;;;;5.05;3.72;;;4.10;99.90;;;;;;5018578;28;20032;-84
2021/11/06 06:28:56;;;;;;;5.25;3.83;;;4.10;99.90;;;;;;5018479;28;20128;-83
2021/11/06 06:31:22;;;;;;;4.85;3.50;;;4.10;99.90;;;;;;5018352;28;20104;-84
2021/11/06 06:33:48;;;;;;;5.50;3.58;;;4.20;99.90;;;;;;5018494;28;20029;-84
2021/11/06 06:36:14;;;;;;;5.47;3.10;;;4.30;99.90;;;;;;5018467;28;20389;-84
2021/11/06 06:38:40;;;;;;;4.97;3.60;;;4.20;99.90;;;;;;5018387;28;20087;-84
2021/11/06 06:41:05;;;;;;;5.43;4.13;;;4.00;99.90;;;;;;5019595;28;20025;-83
2021/11/06 06:43:32;;;;;;;6.60;4.70;;;3.90;99.90;;;;;;5018293;28;20049;-84
2021/11/06 06:45:58;;;;;;;5.95;4.82;;;3.80;99.90;;;;;;5018269;28;20040;-83
2021/11/06 06:48:24;;;;;;;5.07;3.90;;;3.70;99.90;;;;;;5018140;28;20025;-84
2021/11/06 06:50:50;;;;;;;7.22;4.60;;;3.70;99.90;;;;;;5018146;28;20025;-84
2021/11/06 06:53:20;;;;;;;8.18;5.38;;;3.70;99.90;;;;;;5018170;28;20022;-84
2021/11/06 06:55:47;;;;;;;6.20;4.50;;;3.60;99.90;;;;;;5017990;28;20501;-84
2021/11/06 06:58:13;;;;;;;6.03;4.18;;;3.80;99.90;;;;;;5018091;28;20083;-84
2021/11/06 07:00:39;;;;;;;6.40;3.58;;;3.70;99.90;;;;;;5017877;28;20119;-84
2021/11/06 07:03:04;;;;;;;5.63;3.03;;;3.80;99.90;;;;;;5035702;28;20029;-84
2021/11/06 07:05:31;;;;;;;7.05;3.60;;;4.20;99.90;;;;;;5035595;28;20362;-84
2021/11/06 07:07:57;;;;;;;4.20;3.45;;;4.60;99.90;;;;;;5017890;28;20025;-84
2021/11/06 07:10:25;;;;;;;4.22;3.55;;;4.80;99.90;;;;;;5017837;28;20030;-84
2021/11/06 07:12:51;;;;;;;4.60;3.40;;;4.80;99.90;;;;;;5017875;28;20025;-84
2021/11/06 07:15:17;;;;;;;5.03;3.90;;;5.00;99.90;;;;;;5035477;28;20060;-84
2021/11/06 07:17:43;;;;;;;5.95;3.40;;;4.90;99.90;;;;;;5035710;28;20032;-84
2021/11/06 07:20:10;;;;;;;4.90;3.50;;;4.90;99.90;;;;;;5017327;28;20481;-84
2021/11/06 07:22:37;;;;;;;5.13;4.05;;;4.90;99.90;;;;;;5017578;28;20029;-84
2021/11/06 07:25:06;;;;;;;6.20;3.38;;;4.70;99.90;;;;;;5035288;28;20074;-85
2021/11/06 07:27:32;;;;;;;10.10;5.20;;;4.90;99.90;;;;;;5017413;28;20025;-84
2021/11/06 07:29:59;;;;;;;7.38;4.78;;;4.90;99.90;;;;;;5017323;28;20082;-84
2021/11/06 07:32:25;;;;;;;8.73;5.07;;;5.00;99.90;;;;;;5016383;28;20021;-84
2021/11/06 07:34:50;;;;;;;9.43;5.55;;;5.30;99.90;;;;;;5017418;28;20393;-84
2021/11/06 07:37:16;;;;;;;6.15;4.45;;;5.20;99.90;;;;;;5017278;28;20500;-84
2021/11/06 07:39:42;;;;;;;7.05;5.18;;;5.00;99.90;;;;;;5035033;28;20032;-84
2021/11/06 07:42:08;;;;;;;7.68;5.05;;;4.90;99.90;;;;;;5017166;28;20397;-84
2021/11/06 07:44:34;;;;;;;7.68;5.22;;;4.80;99.90;;;;;;5017100;28;20061;-84
2021/11/06 07:47:00;;;;;;;9.32;5.53;;;4.80;99.90;;;;;;5035088;28;20021;-84
2021/11/06 07:49:26;;;;;;;8.85;6.40;;;5.00;99.90;;;;;;5017101;28;20040;-84
2021/11/06 07:51:58;;;;;;;7.93;4.78;;;5.10;99.90;;;;;;5017051;28;20017;-84
2021/11/06 07:54:24;;;;;;;9.95;6.00;;;5.20;99.90;;;;;;5017516;28;20121;-83
2021/11/06 07:56:50;;;;;;;6.20;5.05;;;5.50;99.90;;;;;;5034685;28;20547;-84
2021/11/06 07:59:15;;;;;;;10.95;6.18;;;5.50;99.90;;;;;;5017334;28;20032;-84
2021/11/06 08:01:41;;;;;;;9.50;5.32;;;5.60;99.90;;;;;;5016836;28;20026;-84
2021/11/06 08:04:07;;;;;;;7.45;5.55;;;5.50;99.90;;;;;;5016999;28;20029;-83
2021/11/06 08:06:35;;;;;;;9.38;6.18;;;5.60;99.90;;;;;;5016592;28;20060;-83
2021/11/06 08:09:00;;;;;;;9.48;6.32;;;5.50;99.90;;;;;;5017413;28;20056;-83
2021/11/06 08:11:26;;;;;;;7.07;5.22;;;5.80;99.90;;;;;;5016792;28;20061;-84
2021/11/06 08:13:52;;;;;;;6.78;4.97;;;5.90;99.90;;;;;;5016581;28;20025;-83
2021/11/06 08:16:18;;;;;;;8.23;5.88;;;6.00;99.90;;;;;;5016660;28;20053;-83
2021/11/06 08:18:45;;;;;;;8.55;5.45;;;6.20;99.90;;;;;;5016664;28;20120;-84
2021/11/06 08:21:11;;;;;;;9.90;6.72;;;6.20;99.90;;;;;;5016101;28;20046;-83
2021/11/06 08:23:37;;;;;;;9.77;6.25;;;6.20;99.90;;;;;;5034404;28;20032;-84
2021/11/06 08:26:04;;;;;;;7.50;5.45;;;6.20;99.90;;;;;;5016397;28;20032;-84
2021/11/06 08:28:30;;;;;;;6.38;4.97;;;6.30;99.90;;;;;;5016299;28;20477;-83
2021/11/06 08:30:56;;;;;;;7.10;5.38;;;6.70;99.90;;;;;;5016272;28;20358;-84
2021/11/06 08:33:22;;;;;;;10.90;6.25;;;7.00;99.90;;;;;;5033971;28;20028;-84
2021/11/06 08:35:48;;;;;;;5.28;3.88;;;7.30;99.90;;;;;;5016180;28;20110;-83
2021/11/06 08:38:14;;;;;;;10.52;6.03;;;7.50;99.90;;;;;;5033856;28;20104;-83
2021/11/06 08:40:41;;;;;;;7.22;5.10;;;7.60;99.90;;;;;;5016397;28;20033;-84
2021/11/06 08:43:07;;;;;;;6.53;5.07;;;7.60;99.90;;;;;;5033585;28;20026;-83
2021/11/06 08:45:33;;;;;;;8.30;5.90;;;7.50;99.90;;;;;;5015988;28;20025;-84
2021/11/06 08:47:59;;;;;;;7.55;5.30;;;7.60;99.90;;;;;;5033589;28;20033;-84
2021/11/06 08:50:27;;;;;;;6.55;4.22;;;7.70;99.90;;;;;;5015949;28;20028;-84
2021/11/06 08:52:55;;;;;;;5.55;4.75;;;8.30;99.90;;;;;;5015875;28;20044;-84
2021/11/06 08:55:22;;;;;;;6.72;5.10;;;8.60;99.90;;;;;;5016152;28;20017;-83
2021/11/06 08:57:48;;;;;;;5.80;4.10;;;8.70;99.90;;;;;;5033514;28;20380;-84
2021/11/06 09:00:25;;;;;;;8.48;4.93;;;8.80;99.90;;;;;;5015840;28;20120;-84
2021/11/06 09:02:51;;;;;;;7.47;4.63;;;8.60;99.90;;;;;;5015726;28;20029;-83
2021/11/06 09:05:16;;;;;;;7.25;4.32;;;8.60;99.90;;;;;;5033933;28;20025;-84
2021/11/06 09:07:42;;;;;;;6.88;4.75;;;8.50;99.90;;;;;;5015692;28;20394;-84
2021/11/06 09:10:13;;;;;;;6.00;4.90;;;8.40;99.90;;;;;;5015550;28;20526;-84
2021/11/06 09:12:39;;;;;;;7.07;5.07;;;8.30;99.90;;;;;;5015724;28;20028;-84
2021/11/06 09:15:05;;;;;;;7.78;4.85;;;8.50;99.90;;;;;;5015607;28;20484;-83
2021/11/06 09:17:31;;;;;;;6.80;4.88;;;8.90;99.90;;;;;;5015697;28;20096;-84
2021/11/06 09:19:57;;;;;;;5.90;4.53;;;9.10;99.90;;;;;;5015490;28;20037;-83
2021/11/06 09:22:24;;;;;;;6.13;5.10;;;9.40;99.90;;;;;;5033053;28;20095;-84
2021/11/06 09:24:51;;;;;;;6.88;5.35;;;9.50;99.90;;;;;;5015413;28;20026;-83
2021/11/06 09:27:18;;;;;;;6.68;4.32;;;9.20;99.90;;;;;;5033106;28;20022;-83
2021/11/06 09:29:44;;;;;;;5.78;4.88;;;9.30;99.90;;;;;;5015361;28;20033;-84
2021/11/06 09:32:11;;;;;;;10.45;5.75;;;9.50;99.90;;;;;;5015428;28;20478;-84
2021/11/06 09:34:38;;;;;;;9.95;4.65;;;9.60;99.90;;;;;;5015292;28;20021;-84
2021/11/06 09:37:05;;;;;;;6.13;4.40;;;9.80;99.90;;;;;;5016181;28;20426;-84
2021/11/06 09:39:31;;;;;;;7.63;4.40;;;10.00;99.90;;;;;;5032987;28;20025;-84
2021/11/06 09:41:57;;;;;;;5.80;4.78;;;10.30;99.90;;;;;;5015276;28;20045;-83
2021/11/06 09:44:27;;;;;;;7.43;5.82;;;10.10;99.90;;;;;;5015280;28;20033;-83
2021/11/06 09:46:56;;;;;;;7.20;5.05;;;10.40;99.90;;;;;;5015285;28;20074;-84
2021/11/06 09:49:21;;;;;;;7.03;4.80;;;10.50;99.90;;;;;;5033073;28;20112;-84
2021/11/06 09:51:47;;;;;;;7.18;5.18;;;10.70;99.90;;;;;;5015193;28;20108;-84
2021/11/06 09:54:13;;;;;;;10.90;5.65;;;10.70;99.90;;;;;;5015313;28;20036;-84
2021/11/06 09:56:39;;;;;;;6.70;4.57;;;10.80;99.90;;;;;;5036857;28;20053;-84
2021/11/06 09:59:06;;;;;;;9.05;5.03;;;10.90;99.90;;;;;;5019090;28;20115;-84
2021/11/06 10:01:33;;;;;;;8.38;5.88;;;10.90;99.90;;;;;;5019137;28;20095;-84
2021/11/06 10:04:07;;;;;;;8.10;5.45;;;11.00;99.90;;;;;;5018929;28;20029;-84
2021/11/06 10:06:33;;;;;;;7.67;6.07;;;11.00;99.90;;;;;;5037135;28;20381;-84
2021/11/06 10:08:59;;;;;;;7.88;5.95;;;11.50;99.90;;;;;;5036626;28;20520;-84
2021/11/06 10:11:31;;;;;;;11.23;7.28;;;11.70;99.90;;;;;;5018795;28;20053;-84
2021/11/06 10:14:05;;;;;;;8.85;6.38;;;11.60;99.90;;;;;;5019719;28;20045;-84
2021/11/06 10:16:32;;;;;;;10.00;6.15;;;11.70;99.90;;;;;;5036935;28;20385;-84
2021/11/06 10:19:11;;;;;;;8.43;6.47;;;11.70;99.90;;;;;;5036820;28;20474;-84
2021/11/06 10:21:39;;;;;;;7.43;5.30;;;11.80;99.90;;;;;;5036416;28;20041;-84
2021/11/06 10:24:06;;;;;;;7.60;5.88;;;12.10;99.90;;;;;;5036701;28;20476;-84
2021/11/06 10:26:32;;;;;;;5.68;4.57;;;12.30;99.90;;;;;;5018441;28;20029;-84
2021/11/06 10:29:29;;;;;;;10.02;7.15;;;12.60;99.90;;;;;;5018400;28;20056;-83
2021/11/06 10:31:54;;;;;;;8.00;6.07;;;13.20;99.90;;;;;;5017703;28;20071;-84
2021/11/06 10:34:22;;;;;;;11.57;6.75;;;13.30;99.90;;;;;;5018541;28;20381;-84
2021/11/06 10:37:05;;;;;;;8.63;6.75;;;13.00;99.90;;;;;;5018435;28;20025;-84
2021/11/06 10:39:32;;;;;;;10.43;6.00;;;13.20;99.90;;;;;;5018716;28;20033;-84
2021/11/06 10:42:15;;;;;;;11.93;6.45;;;13.50;99.90;;;;;;5036100;28;20389;-83
2021/11/06 10:44:43;;;;;;;8.98;6.97;;;13.70;99.90;;;;;;5019044;28;20365;-84
2021/11/06 10:47:10;;;;;;;9.18;6.65;;;13.90;99.90;;;;;;5018189;28;20032;-84
2021/11/06 10:49:40;;;;;;;11.38;7.95;;;14.10;99.90;;;;;;5018207;28;20461;-84
2021/11/06 10:52:11;;;;;;;9.13;7.28;;;14.20;99.90;;;;;;5036118;28;20030;-84
2021/11/06 10:55:06;;;;;;;11.68;7.45;;;14.50;99.90;;;;;;5018090;28;20028;-85
2021/11/06 10:57:33;;;;;;;;;;;14.60;99.90;;;;;;5018429;28;20018;-84
2021/11/06 11:00:15;;;;;;;12.27;7.47;;;14.70;99.90;;;;;;5018242;28;19905;-85
2021/11/06 11:02:41;;;;;;;12.82;9.32;;;14.80;99.90;;;;;;5018004;28;20393;-84
2021/11/06 11:05:30;;;;;;;11.80;8.38;;;14.60;99.90;;;;;;5017793;28;20029;-84
2021/11/06 11:08:07;;;;;;;14.13;7.57;;;14.60;99.90;;;;;;5003016;28;20142;-84
2021/11/06 11:10:36;;;;;;;12.55;9.15;;;14.70;99.90;;;;;;5035886;28;20492;-84
2021/11/06 11:13:17;;;;;;;10.57;8.23;;;14.60;99.90;;;;;;5017795;28;20389;-84
2021/11/06 11:15:52;;;;;;;14.07;8.57;;;15.20;99.90;;;;;;5035526;28;20021;-85
2021/11/06 11:18:38;;;;;;;10.45;7.97;;;15.10;99.90;;;;;;5035503;28;20485;-85
2021/11/06 11:21:20;;;;;;;11.40;8.07;;;15.50;99.90;;;;;;5035376;28;20464;-84
2021/11/06 11:24:23;;;;;;;12.93;8.60;;;16.00;99.90;;;;;;5017645;28;20100;-84
2021/11/06 11:26:53;;;;;;;9.02;6.95;;;15.90;99.90;;;;;;5017581;28;20036;-84
2021/11/06 11:29:26;;;;;;;9.13;7.22;;;16.00;99.90;;;;;;5017361;28;20026;-84
2021/11/06 11:31:53;;;;;;;9.85;7.20;;;;;;;;;;5017502;28;20022;-84
2021/11/06 11:34:18;;;;;;;9.95;6.93;;;16.50;99.90;;;;;;5017378;28;20065;-85
2021/11/06 11:36:46;;;;;;;10.73;7.45;;;16.30;99.90;;;;;;5017369;28;20057;-86
2021/11/06 11:39:15;;;;;;;13.43;6.95;;;16.70;99.90;;;;;;5017347;28;20112;-85
2021/11/06 11:41:43;;;;;;;9.43;6.63;;;16.70;99.90;;;;;;5017252;28;20032;-85
2021/11/06 11:44:46;;;;;;;13.90;8.23;;;16.90;99.90;;;;;;5017268;28;20021;-85
2021/11/06 11:47:17;;;;;;;14.27;7.32;;;16.80;99.90;;;;;;5017185;28;20481;-85
2021/11/06 11:49:45;;;;;;;10.48;7.13;;;17.30;99.90;;;;;;5017107;28;20025;-84
2021/11/06 11:52:34;;;;;;;9.73;6.65;;;17.60;99.90;;;;;;5017674;28;20021;-85
2021/11/06 11:55:09;;;;;;;12.48;8.88;;;17.50;99.90;;;;;;5034872;28;20022;-85
2021/11/06 11:57:41;;;;;;;7.80;6.25;;;17.70;99.90;;;;;;5017227;28;20033;-86
2021/11/06 12:00:19;;;;;;;9.60;6.55;;;18.10;99.90;;;;;;5016958;28;20489;-85
2021/11/06 12:03:00;;;;;;;8.45;6.43;;;18.00;99.90;;;;;;5016963;28;20021;-85
2021/11/06 12:05:41;;;;;;;9.57;5.15;;;18.40;99.90;;;;;;5016866;28;20135;-86
2021/11/06 12:08:09;;;;;;;5.28;3.13;;;18.50;99.70;;;;;;5017041;28;20025;-86
2021/11/06 12:10:40;;;;;;;4.40;2.70;;;19.00;99.40;;;;;;5017322;28;20536;-86
2021/11/06 12:13:30;;;;;;;6.40;3.85;;;19.80;96.70;;;;;;5017810;28;20361;-81
2021/11/06 12:15:55;;;;;;;4.20;2.85;;;19.90;95.80;;;;;;5016566;28;20025;-81
2021/11/06 12:18:33;;;;;;;5.65;2.60;;;20.30;93.80;;;;;;5016168;28;20159;-81
2021/11/06 12:23:37;;;;;;;5.72;3.60;;;19.90;93.70;;;;;;5034284;28;20053;-81
2021/11/06 12:26:18;;;;;;;7.60;3.97;;;20.00;93.70;;;;;;5017228;28;20095;-81
2021/11/06 12:28:50;;;;;;;6.25;4.28;;;20.70;93.60;;;;;;5016361;28;20038;-81
2021/11/06 12:31:37;;;;;;;7.60;4.68;;;21.10;97.70;;;;;;5016420;28;20108;-81
2021/11/06 12:34:03;;;;;;;7.28;4.47;;;21.40;92.20;;;;;;5016370;28;20151;-81
2021/11/06 12:36:31;;;;;;;5.47;4.05;;;21.30;91.10;;;;;;5017983;28;20031;-81
2021/11/06 12:38:59;;;;;;;8.90;4.95;;;20.70;91.00;;;;;;5016267;28;20397;-81
2021/11/06 12:41:38;;;;;;;6.07;4.55;;;20.50;91.80;;;;;;5016114;28;20116;-82
2021/11/06 12:44:06;;;;;;;5.75;4.43;;;20.50;91.30;;;;;;5016637;28;20021;-81
2021/11/06 12:46:39;;;;;;;8.05;4.60;;;20.90;90.50;;;;;;5033807;28;20029;-82
2021/11/06 12:49:11;;;;;;;7.80;3.50;;;20.70;90.30;;;;;;5016843;28;20489;-82
2021/11/06 12:51:42;;;;;;;6.05;4.95;;;20.60;89.90;;;;;;5016089;28;20022;-82
2021/11/06 12:54:11;;;;;;;5.13;4.00;;;20.90;89.50;;;;;;5016072;28;20436;-81
2021/11/06 12:56:55;;;;;;;8.05;4.85;;;20.90;88.50;;;;;;5015887;28;20113;-82
2021/11/06 12:59:25;;;;;;;7.70;4.60;;;21.20;92.40;;;;;;5033744;28;20104;-81